Private Wetterstation Sandau
Wetterdaten: Donnerstag, 08.03.2012
Datum Zeit Temp. A. Feuchte A. Luftdruck Regen Wind Richtung Richtung Taupunkt Windchill
08.03.2012 00:02 4,8 C 82 % 1013,8 hPa 0,0 l/m 6,5 km/h (2 Bft) S-SO 157 2,0 C 3,3 C
08.03.2012 00:07 4,8 C 82 % 1013,8 hPa 0,0 l/m 5,0 km/h (1 Bft) S-SW 202 2,0 C 3,9 C
08.03.2012 00:12 4,7 C 82 % 1013,7 hPa 0,0 l/m 3,6 km/h (1 Bft) W-SW 247 1,9 C 4,7 C
08.03.2012 00:17 4,7 C 82 % 1013,5 hPa 0,0 l/m 2,9 km/h (1 Bft) S 180 1,9 C 4,7 C
08.03.2012 00:22 4,7 C 82 % 1013,6 hPa 0,0 l/m 3,6 km/h (1 Bft) S 180 1,9 C 4,7 C
08.03.2012 00:27 4,7 C 82 % 1013,7 hPa 0,0 l/m 4,3 km/h (1 Bft) S-SO 157 1,9 C 4,7 C
08.03.2012 00:32 4,6 C 83 % 1013,6 hPa 0,0 l/m 4,0 km/h (1 Bft) SW 225 2,0 C 4,6 C
08.03.2012 00:37 4,6 C 83 % 1013,5 hPa 0,0 l/m 5,0 km/h (1 Bft) S-SO 157 2,0 C 3,6 C
08.03.2012 00:42 4,6 C 83 % 1013,6 hPa 0,0 l/m 5,8 km/h (2 Bft) S-SW 202 2,0 C 3,3 C
08.03.2012 00:47 4,6 C 83 % 1013,4 hPa 0,0 l/m 6,1 km/h (2 Bft) S-SW 202 2,0 C 3,2 C
08.03.2012 00:52 4,6 C 83 % 1013,5 hPa 0,0 l/m 0,0 km/h (0 Bft) S 180 2,0 C 4,6 C
08.03.2012 00:57 4,6 C 83 % 1013,5 hPa 0,0 l/m 5,8 km/h (2 Bft) S-SW 202 2,0 C 3,3 C
08.03.2012 01:02 4,6 C 83 % 1013,4 hPa 0,0 l/m 8,3 km/h (2 Bft) S-SO 157 2,0 C 2,6 C
08.03.2012 01:07 4,6 C 83 % 1013,5 hPa 0,0 l/m 3,2 km/h (1 Bft) S-SW 202 2,0 C 4,6 C
08.03.2012 01:12 4,6 C 83 % 1013,3 hPa 0,0 l/m 3,6 km/h (1 Bft) SO 135 2,0 C 4,6 C
08.03.2012 01:17 4,5 C 84 % 1013,3 hPa 0,0 l/m 3,2 km/h (1 Bft) S 180 2,0 C 4,5 C
08.03.2012 01:22 4,5 C 84 % 1013,4 hPa 0,0 l/m 0,0 km/h (0 Bft) S-SO 157 2,0 C 4,5 C
08.03.2012 01:27 4,5 C 84 % 1013,4 hPa 0,0 l/m 0,0 km/h (0 Bft) S-SO 157 2,0 C 4,5 C
08.03.2012 01:32 4,5 C 84 % 1013,3 hPa 0,0 l/m 3,2 km/h (1 Bft) S 180 2,0 C 4,5 C
08.03.2012 01:37 4,5 C 84 % 1013,5 hPa 0,0 l/m 1,8 km/h (1 Bft) SO 135 2,0 C 4,5 C
08.03.2012 01:42 4,4 C 84 % 1013,4 hPa 0,0 l/m 1,8 km/h (1 Bft) S-SO 157 1,9 C 4,4 C
08.03.2012 01:47 4,5 C 84 % 1013,3 hPa 0,0 l/m 3,2 km/h (1 Bft) S 180 2,0 C 4,5 C
08.03.2012 01:52 4,4 C 84 % 1013,3 hPa 0,0 l/m 7,6 km/h (2 Bft) S-SO 157 1,9 C 2,5 C
08.03.2012 01:57 4,4 C 85 % 1013,4 hPa 0,0 l/m 6,1 km/h (2 Bft) S-SW 202 2,1 C 3,0 C
08.03.2012 02:02 4,4 C 85 % 1013,3 hPa 0,0 l/m 2,5 km/h (1 Bft) S-SO 157 2,1 C 4,4 C
08.03.2012 02:07 4,4 C 85 % 1013,3 hPa 0,5 l/m 6,5 km/h (2 Bft) S-SW 202 2,1 C 2,9 C
08.03.2012 02:12 4,4 C 85 % 1013,4 hPa 0,0 l/m 14,4 km/h (3 Bft) S-SW 202 2,1 C 1,1 C
08.03.2012 02:17 4,4 C 85 % 1013,5 hPa 0,0 l/m 4,0 km/h (1 Bft) S-SO 157 2,1 C 4,4 C
08.03.2012 02:22 4,4 C 85 % 1013,3 hPa 0,0 l/m 5,8 km/h (2 Bft) SW 225 2,1 C 3,1 C
08.03.2012 02:27 4,4 C 85 % 1013,2 hPa 0,0 l/m 4,0 km/h (1 Bft) S-SW 202 2,1 C 4,4 C
08.03.2012 02:32 4,4 C 85 % 1013,2 hPa 0,0 l/m 7,2 km/h (2 Bft) S 180 2,1 C 2,7 C
08.03.2012 02:37 4,4 C 85 % 1013,3 hPa 0,5 l/m 2,2 km/h (1 Bft) SW 225 2,1 C 4,4 C
08.03.2012 02:42 4,4 C 85 % 1013,4 hPa 0,0 l/m 3,2 km/h (1 Bft) S-SW 202 2,1 C 4,4 C
08.03.2012 02:47 4,4 C 85 % 1013,3 hPa 0,0 l/m 8,3 km/h (2 Bft) S-SW 202 2,1 C 2,4 C
08.03.2012 02:52 4,4 C 85 % 1013,4 hPa 0,0 l/m 10,4 km/h (2 Bft) S-SW 202 2,1 C 1,9 C
08.03.2012 02:57 4,4 C 85 % 1013,3 hPa 0,0 l/m 9,0 km/h (2 Bft) SW 225 2,1 C 2,2 C
08.03.2012 03:02 4,4 C 85 % 1013,3 hPa 0,0 l/m 5,0 km/h (1 Bft) S-SW 202 2,1 C 3,4 C
08.03.2012 03:07 4,4 C 85 % 1013,1 hPa 0,0 l/m 3,2 km/h (1 Bft) S-SW 202 2,1 C 4,4 C
08.03.2012 03:12 4,4 C 85 % 1013,0 hPa 0,0 l/m 4,0 km/h (1 Bft) S 180 2,1 C 4,4 C
08.03.2012 03:17 4,4 C 85 % 1013,0 hPa 0,0 l/m 7,2 km/h (2 Bft) S-SW 202 2,1 C 2,7 C
08.03.2012 03:22 4,3 C 85 % 1013,2 hPa 0,0 l/m 9,0 km/h (2 Bft) S-SO 157 2,0 C 2,1 C
08.03.2012 03:27 4,3 C 85 % 1013,3 hPa 0,0 l/m 6,1 km/h (2 Bft) S-SW 202 2,0 C 2,9 C
08.03.2012 03:32 4,3 C 86 % 1013,1 hPa 0,5 l/m 5,8 km/h (2 Bft) S-SW 202 2,2 C 3,0 C
08.03.2012 03:37 4,3 C 86 % 1013,2 hPa 0,0 l/m 8,6 km/h (2 Bft) S-SW 202 2,2 C 2,2 C
08.03.2012 03:42 4,3 C 86 % 1013,1 hPa 0,0 l/m 5,8 km/h (2 Bft) SW 225 2,2 C 3,0 C
08.03.2012 03:47 4,3 C 86 % 1013,2 hPa 0,0 l/m 5,0 km/h (1 Bft) SW 225 2,2 C 3,3 C
08.03.2012 03:52 4,4 C 86 % 1013,4 hPa 0,0 l/m 5,4 km/h (1 Bft) SW 225 2,3 C 3,2 C
08.03.2012 03:57 4,3 C 86 % 1013,4 hPa 0,0 l/m 3,6 km/h (1 Bft) W 270 2,2 C 4,3 C
08.03.2012 04:02 4,3 C 86 % 1013,3 hPa 0,0 l/m 5,4 km/h (1 Bft) W-SW 247 2,2 C 3,1 C
08.03.2012 04:07 4,3 C 86 % 1013,2 hPa 0,0 l/m 5,8 km/h (2 Bft) SW 225 2,2 C 3,0 C
08.03.2012 04:12 4,3 C 86 % 1013,3 hPa 0,0 l/m 6,8 km/h (2 Bft) W-SW 247 2,2 C 2,7 C
08.03.2012 04:17 4,3 C 86 % 1013,4 hPa 0,5 l/m 3,2 km/h (1 Bft) W-SW 247 2,2 C 4,3 C
08.03.2012 04:22 4,3 C 86 % 1013,5 hPa 0,0 l/m 4,7 km/h (1 Bft) W-SW 247 2,2 C 3,4 C
08.03.2012 04:27 4,3 C 86 % 1013,3 hPa 0,0 l/m 9,4 km/h (2 Bft) W-SW 247 2,2 C 2,0 C
08.03.2012 04:32 4,3 C 86 % 1013,4 hPa 0,0 l/m 5,0 km/h (1 Bft) W 270 2,2 C 3,3 C
08.03.2012 04:37 4,2 C 86 % 1013,4 hPa 0,0 l/m 4,7 km/h (1 Bft) W-NW 292 2,1 C 3,3 C
08.03.2012 04:42 4,2 C 86 % 1013,4 hPa 0,0 l/m 9,7 km/h (2 Bft) W-SW 247 2,1 C 1,8 C
08.03.2012 04:47 4,2 C 86 % 1013,4 hPa 0,0 l/m 7,2 km/h (2 Bft) W-SW 247 2,1 C 2,4 C
08.03.2012 04:52 4,2 C 86 % 1013,5 hPa 0,0 l/m 10,8 km/h (2 Bft) W 270 2,1 C 1,5 C
08.03.2012 04:57 4,2 C 86 % 1013,5 hPa 0,0 l/m 8,3 km/h (2 Bft) W-SW 247 2,1 C 2,1 C
08.03.2012 05:02 4,2 C 86 % 1013,6 hPa 0,0 l/m 5,4 km/h (1 Bft) W-SW 247 2,1 C 3,0 C
08.03.2012 05:07 4,1 C 86 % 1013,4 hPa 0,0 l/m 6,1 km/h (2 Bft) W-SW 247 2,0 C 2,7 C
08.03.2012 05:12 4,1 C 86 % 1013,5 hPa 0,0 l/m 9,7 km/h (2 Bft) W-SW 247 2,0 C 1,7 C
08.03.2012 05:17 4,1 C 86 % 1013,5 hPa 0,0 l/m 8,3 km/h (2 Bft) W-SW 247 2,0 C 2,0 C
08.03.2012 05:22 4,1 C 86 % 1013,5 hPa 0,0 l/m 4,7 km/h (1 Bft) W 270 2,0 C 3,2 C
08.03.2012 05:27 4,1 C 86 % 1013,8 hPa 0,0 l/m 4,7 km/h (1 Bft) W-SW 247 2,0 C 3,2 C
08.03.2012 05:32 3,9 C 86 % 1013,6 hPa 0,5 l/m 11,5 km/h (2 Bft) W 270 1,8 C 1,0 C
08.03.2012 05:37 3,9 C 86 % 1013,6 hPa 0,0 l/m 7,2 km/h (2 Bft) W-SW 247 1,8 C 2,1 C
08.03.2012 05:42 3,9 C 86 % 1013,6 hPa 0,0 l/m 4,0 km/h (1 Bft) W 270 1,8 C 3,9 C
08.03.2012 05:47 3,9 C 86 % 1014,0 hPa 0,0 l/m 6,1 km/h (2 Bft) W 270 1,8 C 2,4 C
08.03.2012 05:52 3,8 C 86 % 1013,9 hPa 0,0 l/m 4,7 km/h (1 Bft) W-SW 247 1,7 C 2,8 C
08.03.2012 05:57 3,8 C 86 % 1014,0 hPa 0,0 l/m 4,3 km/h (1 Bft) W-SW 247 1,7 C 3,8 C
08.03.2012 06:02 3,8 C 86 % 1014,1 hPa 0,0 l/m 3,6 km/h (1 Bft) W 270 1,7 C 3,8 C
08.03.2012 06:07 3,8 C 86 % 1014,2 hPa 0,0 l/m 4,7 km/h (1 Bft) SW 225 1,7 C 2,8 C
08.03.2012 06:12 3,8 C 86 % 1014,2 hPa 0,0 l/m 3,2 km/h (1 Bft) W 270 1,7 C 3,8 C
08.03.2012 06:17 3,8 C 86 % 1014,3 hPa 0,0 l/m 8,3 km/h (2 Bft) W-SW 247 1,7 C 1,6 C
08.03.2012 06:22 3,7 C 87 % 1014,5 hPa 0,5 l/m 8,3 km/h (2 Bft) W-NW 292 1,7 C 1,5 C
08.03.2012 06:27 3,6 C 87 % 1014,5 hPa 0,0 l/m 5,8 km/h (2 Bft) W 270 1,6 C 2,2 C
08.03.2012 06:32 3,6 C 87 % 1014,6 hPa 0,0 l/m 7,6 km/h (2 Bft) W-NW 292 1,6 C 1,6 C
08.03.2012 06:37 3,6 C 87 % 1014,5 hPa 0,0 l/m 13,0 km/h (3 Bft) W-SW 247 1,6 C 0,4 C
08.03.2012 06:42 3,6 C 87 % 1014,6 hPa 0,0 l/m 6,5 km/h (2 Bft) W 270 1,6 C 1,9 C
08.03.2012 06:47 3,5 C 87 % 1014,6 hPa 0,0 l/m 6,5 km/h (2 Bft) W-NW 292 1,5 C 1,8 C
08.03.2012 06:52 3,5 C 87 % 1014,8 hPa 0,0 l/m 6,1 km/h (2 Bft) W 270 1,5 C 2,0 C
08.03.2012 06:57 3,4 C 87 % 1014,9 hPa 0,0 l/m 6,5 km/h (2 Bft) NW 315 1,4 C 1,7 C
08.03.2012 07:02 3,4 C 87 % 1014,9 hPa 0,0 l/m 6,1 km/h (2 Bft) W-NW 292 1,4 C 1,8 C
08.03.2012 07:07 3,4 C 87 % 1015,0 hPa 0,5 l/m 7,2 km/h (2 Bft) W 270 1,4 C 1,5 C
08.03.2012 07:12 3,4 C 87 % 1015,1 hPa 0,0 l/m 4,0 km/h (1 Bft) W-NW 292 1,4 C 3,4 C
08.03.2012 07:17 3,4 C 87 % 1015,0 hPa 0,0 l/m 6,1 km/h (2 Bft) NW 315 1,4 C 1,8 C
08.03.2012 07:22 3,4 C 87 % 1015,3 hPa 0,0 l/m 3,6 km/h (1 Bft) W-NW 292 1,4 C 3,4 C
08.03.2012 07:27 3,4 C 87 % 1015,4 hPa 0,0 l/m 4,0 km/h (1 Bft) W 270 1,4 C 3,4 C
08.03.2012 07:32 3,4 C 87 % 1015,3 hPa 0,0 l/m 1,4 km/h (1 Bft) W-NW 292 1,4 C 3,4 C
08.03.2012 07:37 3,4 C 87 % 1015,6 hPa 0,0 l/m 4,7 km/h (1 Bft) W-NW 292 1,4 C 2,4 C
08.03.2012 07:42 3,4 C 87 % 1015,7 hPa 0,0 l/m 2,5 km/h (1 Bft) W 270 1,4 C 3,4 C
08.03.2012 07:47 3,4 C 87 % 1015,6 hPa 0,0 l/m 4,0 km/h (1 Bft) W 270 1,4 C 3,4 C
08.03.2012 07:52 3,4 C 87 % 1015,7 hPa 0,0 l/m 5,4 km/h (1 Bft) W-NW 292 1,4 C 2,1 C
08.03.2012 07:57 3,4 C 87 % 1015,8 hPa 0,0 l/m 3,6 km/h (1 Bft) W 270 1,4 C 3,4 C
08.03.2012 08:02 3,4 C 87 % 1016,0 hPa 0,0 l/m 4,0 km/h (1 Bft) W-NW 292 1,4 C 3,4 C
08.03.2012 08:07 3,5 C 87 % 1016,1 hPa 0,0 l/m 5,0 km/h (1 Bft) W-NW 292 1,5 C 2,4 C
08.03.2012 08:12 3,5 C 87 % 1016,2 hPa 0,0 l/m 4,7 km/h (1 Bft) W-SW 247 1,5 C 2,5 C
08.03.2012 08:17 3,5 C 87 % 1016,4 hPa 0,0 l/m 8,3 km/h (2 Bft) W-NW 292 1,5 C 1,3 C
08.03.2012 08:22 3,6 C 88 % 1016,4 hPa 0,0 l/m 3,6 km/h (1 Bft) NW 315 1,8 C 3,6 C
08.03.2012 08:27 3,6 C 88 % 1016,5 hPa 0,0 l/m 4,7 km/h (1 Bft) N-NO 22 1,8 C 2,6 C
08.03.2012 08:32 3,6 C 88 % 1016,7 hPa 0,0 l/m 4,7 km/h (1 Bft) NW 315 1,8 C 2,6 C
08.03.2012 08:37 3,6 C 88 % 1016,7 hPa 0,5 l/m 4,7 km/h (1 Bft) N 360 1,8 C 2,6 C
08.03.2012 08:42 3,6 C 88 % 1016,7 hPa 0,0 l/m 12,6 km/h (3 Bft) NO 45 1,8 C 0,4 C
08.03.2012 08:47 3,6 C 88 % 1016,9 hPa 0,0 l/m 8,6 km/h (2 Bft) O 90 1,8 C 1,3 C
08.03.2012 08:52 3,6 C 89 % 1017,0 hPa 0,0 l/m 4,3 km/h (1 Bft) N-NO 22 2,0 C 3,6 C
08.03.2012 08:57 3,6 C 89 % 1017,2 hPa 0,0 l/m 4,0 km/h (1 Bft) NO 45 2,0 C 3,6 C
08.03.2012 09:02 3,7 C 89 % 1017,1 hPa 0,0 l/m 3,2 km/h (1 Bft) N-NW 337 2,1 C 3,7 C
08.03.2012 09:07 3,8 C 89 % 1017,4 hPa 0,0 l/m 5,8 km/h (2 Bft) W-NW 292 2,2 C 2,4 C
08.03.2012 09:12 3,9 C 89 % 1017,5 hPa 0,0 l/m 6,1 km/h (2 Bft) N-NW 337 2,3 C 2,4 C
08.03.2012 09:17 3,9 C 89 % 1017,6 hPa 0,0 l/m 6,8 km/h (2 Bft) N-NW 337 2,3 C 2,2 C
08.03.2012 09:22 3,9 C 89 % 1017,9 hPa 0,0 l/m 11,9 km/h (2 Bft) N-NO 22 2,3 C 0,9 C
08.03.2012 09:27 3,9 C 89 % 1017,9 hPa 0,0 l/m 6,5 km/h (2 Bft) NO 45 2,3 C 2,3 C
08.03.2012 09:32 4,0 C 89 % 1017,9 hPa 0,0 l/m 2,9 km/h (1 Bft) NW 315 2,4 C 4,0 C
08.03.2012 09:37 4,1 C 89 % 1017,9 hPa 0,0 l/m 3,6 km/h (1 Bft) N-NW 337 2,5 C 4,1 C
08.03.2012 09:42 4,1 C 89 % 1018,1 hPa 0,0 l/m 5,8 km/h (2 Bft) N-NO 22 2,5 C 2,8 C
08.03.2012 09:47 4,2 C 89 % 1018,2 hPa 0,0 l/m 10,8 km/h (2 Bft) NO 45 2,6 C 1,5 C
08.03.2012 09:52 4,3 C 90 % 1018,3 hPa 0,0 l/m 7,2 km/h (2 Bft) N 360 2,8 C 2,5 C
08.03.2012 09:57 4,4 C 89 % 1018,5 hPa 0,0 l/m 9,4 km/h (2 Bft) W-SW 247 2,7 C 2,1 C
08.03.2012 10:02 4,4 C 89 % 1018,8 hPa 0,0 l/m 5,4 km/h (1 Bft) N 360 2,7 C 3,2 C
08.03.2012 10:07 4,5 C 89 % 1018,6 hPa 0,0 l/m 6,1 km/h (2 Bft) N 360 2,8 C 3,1 C
08.03.2012 10:12 4,6 C 89 % 1018,6 hPa 0,0 l/m 9,4 km/h (2 Bft) N-NO 22 2,9 C 2,3 C
08.03.2012 10:17 4,7 C 89 % 1018,9 hPa 0,0 l/m 4,3 km/h (1 Bft) N-NO 22 3,0 C 4,7 C
08.03.2012 10:22 4,8 C 89 % 1019,0 hPa 0,0 l/m 9,4 km/h (2 Bft) N 360 3,1 C 2,6 C
08.03.2012 10:27 4,9 C 89 % 1019,1 hPa 0,0 l/m 7,2 km/h (2 Bft) N-NO 22 3,2 C 3,2 C
08.03.2012 10:32 4,9 C 88 % 1019,2 hPa 0,0 l/m 0,0 km/h (0 Bft) NO 45 3,1 C 4,9 C
08.03.2012 10:37 5,1 C 88 % 1019,4 hPa 0,0 l/m 13,7 km/h (3 Bft) N 360 3,3 C 2,1 C
08.03.2012 10:42 5,1 C 87 % 1019,6 hPa 0,0 l/m 8,3 km/h (2 Bft) NO 45 3,1 C 3,2 C
08.03.2012 10:47 5,2 C 87 % 1019,7 hPa 0,0 l/m 7,2 km/h (2 Bft) NW 315 3,2 C 3,6 C
08.03.2012 10:52 5,3 C 86 % 1019,7 hPa 0,0 l/m 13,0 km/h (3 Bft) NW 315 3,2 C 2,4 C
08.03.2012 10:57 5,4 C 86 % 1019,8 hPa 0,0 l/m 3,2 km/h (1 Bft) NO 45 3,3 C 5,4 C
08.03.2012 11:02 5,5 C 85 % 1020,0 hPa 0,0 l/m 16,6 km/h (3 Bft) NW 315 3,2 C 2,1 C
08.03.2012 11:07 5,6 C 85 % 1020,1 hPa 0,0 l/m 6,5 km/h (2 Bft) N 360 3,3 C 4,3 C
08.03.2012 11:12 5,8 C 85 % 1020,4 hPa 0,0 l/m 12,6 km/h (3 Bft) N-NW 337 3,5 C 3,1 C
08.03.2012 11:17 5,9 C 83 % 1020,5 hPa 0,0 l/m 15,8 km/h (3 Bft) W-NW 292 3,2 C 2,7 C
08.03.2012 11:22 5,9 C 83 % 1020,6 hPa 0,0 l/m 17,3 km/h (3 Bft) N-NO 22 3,2 C 2,5 C
08.03.2012 11:27 5,9 C 82 % 1020,5 hPa 0,0 l/m 5,0 km/h (1 Bft) NO 45 3,1 C 5,1 C
08.03.2012 11:32 6,0 C 82 % 1020,8 hPa 0,0 l/m 5,0 km/h (1 Bft) N-NO 22 3,2 C 5,2 C
08.03.2012 11:37 6,1 C 81 % 1020,9 hPa 0,0 l/m 13,3 km/h (3 Bft) NW 315 3,1 C 3,4 C
08.03.2012 11:42 6,1 C 81 % 1021,1 hPa 0,0 l/m 12,2 km/h (2 Bft) NO 45 3,1 C 3,6 C
08.03.2012 11:47 6,1 C 80 % 1021,1 hPa 0,0 l/m 10,8 km/h (2 Bft) N-NO 22 2,9 C 3,8 C
08.03.2012 11:52 6,2 C 80 % 1021,3 hPa 0,0 l/m 9,7 km/h (2 Bft) N-NO 22 3,0 C 4,2 C
08.03.2012 11:57 6,2 C 80 % 1021,4 hPa 0,0 l/m 14,0 km/h (3 Bft) N-NW 337 3,0 C 3,4 C
08.03.2012 12:02 6,3 C 78 % 1021,4 hPa 0,0 l/m 22,0 km/h (4 Bft) W-NW 292 2,8 C 2,5 C
08.03.2012 12:07 6,3 C 78 % 1021,4 hPa 0,0 l/m 10,1 km/h (2 Bft) N-NO 22 2,8 C 4,2 C
08.03.2012 12:12 6,4 C 78 % 1021,5 hPa 0,0 l/m 7,2 km/h (2 Bft) NO 45 2,8 C 5,0 C
08.03.2012 12:17 6,5 C 78 % 1021,6 hPa 0,0 l/m 7,2 km/h (2 Bft) O-NO 67 2,9 C 5,1 C
08.03.2012 12:22 6,6 C 79 % 1021,9 hPa 0,0 l/m 19,1 km/h (3 Bft) W-NW 292 3,2 C 3,2 C
08.03.2012 12:27 6,7 C 78 % 1021,9 hPa 0,0 l/m 4,7 km/h (1 Bft) W 270 3,1 C 6,1 C
08.03.2012 12:32 6,9 C 77 % 1022,0 hPa 0,0 l/m 10,8 km/h (2 Bft) N-NO 22 3,2 C 4,8 C
08.03.2012 12:37 6,9 C 77 % 1021,9 hPa 0,0 l/m 9,4 km/h (2 Bft) NW 315 3,2 C 5,1 C
08.03.2012 12:42 7,0 C 75 % 1022,1 hPa 0,0 l/m 9,0 km/h (2 Bft) W 270 2,9 C 5,3 C
08.03.2012 12:47 7,2 C 74 % 1022,1 hPa 0,0 l/m 14,8 km/h (3 Bft) N-NO 22 2,9 C 4,5 C
08.03.2012 12:52 7,2 C 74 % 1022,2 hPa 0,0 l/m 9,4 km/h (2 Bft) N-NO 22 2,9 C 5,4 C
08.03.2012 12:57 7,3 C 73 % 1022,2 hPa 0,0 l/m 11,5 km/h (2 Bft) N 360 2,8 C 5,1 C
08.03.2012 13:02 7,6 C 71 % 1022,3 hPa 0,0 l/m 7,9 km/h (2 Bft) NO 45 2,7 C 6,2 C
08.03.2012 13:07 7,5 C 71 % 1022,4 hPa 0,0 l/m 3,2 km/h (1 Bft) O-NO 67 2,6 C 7,5 C
08.03.2012 13:12 7,6 C 71 % 1022,3 hPa 0,0 l/m 12,2 km/h (2 Bft) W-NW 292 2,7 C 5,4 C
08.03.2012 13:17 7,6 C 70 % 1022,5 hPa 0,0 l/m 8,3 km/h (2 Bft) NW 315 2,5 C 6,1 C
08.03.2012 13:22 7,6 C 69 % 1022,6 hPa 0,0 l/m 10,1 km/h (2 Bft) NO 45 2,3 C 5,7 C
08.03.2012 13:27 7,6 C 68 % 1022,7 hPa 0,0 l/m 9,0 km/h (2 Bft) N 360 2,1 C 6,0 C
08.03.2012 13:32 7,6 C 68 % 1022,7 hPa 0,0 l/m 9,7 km/h (2 Bft) N-NO 22 2,1 C 5,8 C
08.03.2012 13:37 7,8 C 67 % 1022,6 hPa 0,0 l/m 9,4 km/h (2 Bft) NW 315 2,1 C 6,1 C
08.03.2012 13:42 7,9 C 66 % 1022,8 hPa 0,0 l/m 14,4 km/h (3 Bft) N 360 1,9 C 5,4 C
08.03.2012 13:47 7,9 C 66 % 1022,9 hPa 0,0 l/m 1,4 km/h (1 Bft) NW 315 1,9 C 7,9 C
08.03.2012 13:52 8,2 C 64 % 1022,9 hPa 0,0 l/m 12,6 km/h (3 Bft) N-NW 337 1,8 C 6,0 C
08.03.2012 13:57 8,4 C 64 % 1023,0 hPa 0,0 l/m 12,2 km/h (2 Bft) NO 45 2,0 C 6,3 C
08.03.2012 14:02 8,4 C 63 % 1023,2 hPa 0,0 l/m 4,7 km/h (1 Bft) W-SW 247 1,8 C 8,0 C
08.03.2012 14:07 8,2 C 63 % 1023,2 hPa 0,0 l/m 11,2 km/h (2 Bft) NO 45 1,6 C 6,3 C
08.03.2012 14:12 8,1 C 63 % 1023,4 hPa 0,0 l/m 10,1 km/h (2 Bft) N-NW 337 1,5 C 6,3 C
08.03.2012 14:17 8,2 C 63 % 1023,5 hPa 0,0 l/m 7,6 km/h (2 Bft) W-SW 247 1,6 C 7,0 C
08.03.2012 14:22 8,2 C 63 % 1023,6 hPa 0,0 l/m 6,5 km/h (2 Bft) N-NO 22 1,6 C 7,3 C
08.03.2012 14:27 8,1 C 63 % 1023,6 hPa 0,0 l/m 13,3 km/h (3 Bft) N 360 1,5 C 5,8 C
08.03.2012 14:32 7,9 C 63 % 1023,6 hPa 0,0 l/m 6,8 km/h (2 Bft) O-NO 67 1,3 C 6,8 C
08.03.2012 14:37 7,9 C 65 % 1023,7 hPa 0,0 l/m 7,2 km/h (2 Bft) NW 315 1,7 C 6,7 C
08.03.2012 14:42 7,9 C 65 % 1024,1 hPa 0,0 l/m 3,6 km/h (1 Bft) NW 315 1,7 C 7,9 C
08.03.2012 14:47 7,9 C 63 % 1024,0 hPa 0,0 l/m 8,3 km/h (2 Bft) W-NW 292 1,3 C 6,5 C
08.03.2012 14:52 7,8 C 63 % 1024,1 hPa 0,0 l/m 5,4 km/h (1 Bft) N 360 1,2 C 7,1 C
08.03.2012 14:57 7,8 C 64 % 1024,3 hPa 0,0 l/m 11,5 km/h (2 Bft) N 360 1,4 C 5,7 C
08.03.2012 15:02 7,9 C 65 % 1024,4 hPa 0,0 l/m 11,9 km/h (2 Bft) W-NW 292 1,7 C 5,8 C
08.03.2012 15:07 8,0 C 64 % 1024,4 hPa 0,0 l/m 5,4 km/h (1 Bft) N-NO 22 1,6 C 7,4 C
08.03.2012 15:12 7,9 C 64 % 1024,5 hPa 0,0 l/m 7,6 km/h (2 Bft) W-NW 292 1,5 C 6,6 C
08.03.2012 15:17 7,9 C 63 % 1024,6 hPa 0,0 l/m 9,0 km/h (2 Bft) NW 315 1,3 C 6,3 C
08.03.2012 15:22 7,8 C 64 % 1024,7 hPa 0,0 l/m 3,6 km/h (1 Bft) NO 45 1,4 C 7,8 C
08.03.2012 15:27 7,9 C 64 % 1024,7 hPa 0,0 l/m 5,0 km/h (1 Bft) O-NO 67 1,5 C 7,4 C
08.03.2012 15:32 8,1 C 64 % 1024,9 hPa 0,0 l/m 14,4 km/h (3 Bft) N 360 1,7 C 5,7 C
08.03.2012 15:37 8,1 C 63 % 1024,9 hPa 0,0 l/m 6,1 km/h (2 Bft) NO 45 1,5 C 7,3 C
08.03.2012 15:42 8,1 C 63 % 1025,0 hPa 0,0 l/m 8,6 km/h (2 Bft) N-NW 337 1,5 C 6,6 C
08.03.2012 15:47 8,1 C 63 % 1025,1 hPa 0,0 l/m 3,2 km/h (1 Bft) N-NW 337 1,5 C 8,1 C
08.03.2012 15:52 8,1 C 62 % 1025,2 hPa 0,0 l/m 8,6 km/h (2 Bft) N 360 1,3 C 6,6 C
08.03.2012 15:57 8,0 C 62 % 1025,3 hPa 0,0 l/m 6,1 km/h (2 Bft) N-NO 22 1,2 C 7,1 C
08.03.2012 16:02 8,0 C 62 % 1025,4 hPa 0,0 l/m 6,5 km/h (2 Bft) NO 45 1,2 C 7,0 C
08.03.2012 16:07 8,1 C 62 % 1025,4 hPa 0,0 l/m 4,7 km/h (1 Bft) NW 315 1,3 C 7,7 C
08.03.2012 16:12 8,1 C 62 % 1025,4 hPa 0,0 l/m 3,2 km/h (1 Bft) N-NO 22 1,3 C 8,1 C
08.03.2012 16:17 8,2 C 62 % 1025,4 hPa 0,0 l/m 5,8 km/h (2 Bft) NO 45 1,4 C 7,5 C
08.03.2012 16:22 8,3 C 61 % 1025,6 hPa 0,0 l/m 3,2 km/h (1 Bft) NO 45 1,2 C 8,3 C
08.03.2012 16:27 8,4 C 60 % 1025,5 hPa 0,0 l/m 9,0 km/h (2 Bft) N-NO 22 1,1 C 6,9 C
08.03.2012 16:32 8,5 C 60 % 1025,7 hPa 0,0 l/m 4,7 km/h (1 Bft) N 360 1,2 C 8,2 C
08.03.2012 16:37 8,5 C 60 % 1025,7 hPa 0,0 l/m 2,9 km/h (1 Bft) N-NO 22 1,2 C 8,5 C
08.03.2012 16:42 8,5 C 59 % 1025,8 hPa 0,0 l/m 4,0 km/h (1 Bft) N-NO 22 1,0 C 8,5 C
08.03.2012 16:47 8,6 C 58 % 1025,9 hPa 0,0 l/m 7,2 km/h (2 Bft) NO 45 0,8 C 7,5 C
08.03.2012 16:52 8,5 C 58 % 1026,1 hPa 0,0 l/m 10,1 km/h (2 Bft) N 360 0,7 C 6,8 C
08.03.2012 16:57 8,5 C 57 % 1026,1 hPa 0,0 l/m 10,4 km/h (2 Bft) NO 45 0,5 C 6,8 C
08.03.2012 17:02 8,5 C 57 % 1026,2 hPa 0,0 l/m 6,5 km/h (2 Bft) N 360 0,5 C 7,6 C
08.03.2012 17:07 8,4 C 57 % 1026,3 hPa 0,0 l/m 14,4 km/h (3 Bft) NO 45 0,4 C 6,0 C
08.03.2012 17:12 8,3 C 57 % 1026,3 hPa 0,0 l/m 4,3 km/h (1 Bft) N 360 0,3 C 8,3 C
08.03.2012 17:17 8,3 C 57 % 1026,5 hPa 0,0 l/m 10,8 km/h (2 Bft) N 360 0,3 C 6,5 C
08.03.2012 17:22 8,1 C 58 % 1026,5 hPa 0,0 l/m 7,2 km/h (2 Bft) N-NO 22 0,3 C 7,0 C
08.03.2012 17:27 8,0 C 59 % 1026,7 hPa 0,0 l/m 4,7 km/h (1 Bft) NO 45 0,5 C 7,6 C
08.03.2012 17:32 7,8 C 59 % 1026,8 hPa 0,0 l/m 2,2 km/h (1 Bft) O-NO 67 0,3 C 7,8 C
08.03.2012 17:37 7,6 C 60 % 1027,0 hPa 0,0 l/m 2,9 km/h (1 Bft) N 360 0,3 C 7,6 C
08.03.2012 17:42 7,6 C 61 % 1027,0 hPa 0,0 l/m 5,0 km/h (1 Bft) NW 315 0,6 C 7,0 C
08.03.2012 17:47 7,4 C 62 % 1027,1 hPa 0,0 l/m 1,4 km/h (1 Bft) W-NW 292 0,6 C 7,4 C
08.03.2012 17:52 7,3 C 62 % 1027,2 hPa 0,0 l/m 0,0 km/h (0 Bft) W 270 0,5 C 7,3 C
08.03.2012 17:57 7,2 C 63 % 1027,2 hPa 0,0 l/m 3,2 km/h (1 Bft) NW 315 0,6 C 7,2 C
08.03.2012 18:02 7,1 C 64 % 1027,4 hPa 0,0 l/m 0,0 km/h (0 Bft) NW 315 0,8 C 7,1 C
08.03.2012 18:07 6,9 C 64 % 1027,4 hPa 0,0 l/m 0,0 km/h (0 Bft) NW 315 0,6 C 6,9 C
08.03.2012 18:12 6,8 C 65 % 1027,6 hPa 0,0 l/m 4,0 km/h (1 Bft) N-NW 337 0,7 C 6,8 C
08.03.2012 18:17 6,6 C 65 % 1027,8 hPa 0,0 l/m 0,0 km/h (0 Bft) N-NW 337 0,5 C 6,6 C
08.03.2012 18:22 6,5 C 66 % 1028,2 hPa 0,0 l/m 2,5 km/h (1 Bft) N 360 0,6 C 6,5 C
08.03.2012 18:27 6,4 C 66 % 1028,3 hPa 0,0 l/m 0,0 km/h (0 Bft) NO 45 0,5 C 6,4 C
08.03.2012 18:32 6,3 C 66 % 1028,3 hPa 0,0 l/m 11,9 km/h (2 Bft) NO 45 0,4 C 3,8 C
08.03.2012 18:37 6,4 C 65 % 1028,5 hPa 0,0 l/m 10,4 km/h (2 Bft) N-NO 22 0,3 C 4,3 C
08.03.2012 18:42 6,4 C 65 % 1028,4 hPa 0,0 l/m 2,5 km/h (1 Bft) NO 45 0,3 C 6,4 C
08.03.2012 18:47 6,4 C 65 % 1028,6 hPa 0,0 l/m 5,0 km/h (1 Bft) NW 315 0,3 C 5,7 C
08.03.2012 18:52 6,3 C 66 % 1028,7 hPa 0,0 l/m 5,0 km/h (1 Bft) N 360 0,4 C 5,6 C
08.03.2012 18:57 6,2 C 66 % 1028,7 hPa 0,0 l/m 0,0 km/h (0 Bft) NO 45 0,3 C 6,2 C
08.03.2012 19:02 6,1 C 67 % 1028,8 hPa 0,0 l/m 1,4 km/h (1 Bft) N-NW 337 0,4 C 6,1 C
08.03.2012 19:07 6,0 C 67 % 1028,9 hPa 0,0 l/m 0,0 km/h (0 Bft) N 360 0,3 C 6,0 C
08.03.2012 19:12 5,9 C 68 % 1029,1 hPa 0,0 l/m 2,9 km/h (1 Bft) W-NW 292 0,5 C 5,9 C
08.03.2012 19:17 5,8 C 68 % 1029,2 hPa 0,0 l/m 5,0 km/h (1 Bft) W-NW 292 0,4 C 5,0 C
08.03.2012 19:22 5,6 C 69 % 1029,3 hPa 0,0 l/m 4,0 km/h (1 Bft) W-NW 292 0,4 C 5,6 C
08.03.2012 19:27 5,4 C 69 % 1029,4 hPa 0,0 l/m 0,0 km/h (0 Bft) W-NW 292 0,2 C 5,4 C
08.03.2012 19:32 5,3 C 69 % 1029,5 hPa 0,0 l/m 0,0 km/h (0 Bft) NW 315 0,1 C 5,3 C
08.03.2012 19:37 5,3 C 69 % 1029,5 hPa 0,0 l/m 5,4 km/h (1 Bft) W-NW 292 0,1 C 4,3 C
08.03.2012 19:42 5,1 C 70 % 1029,8 hPa 0,0 l/m 1,8 km/h (1 Bft) NW 315 0,1 C 5,1 C
08.03.2012 19:47 5,1 C 70 % 1029,7 hPa 0,0 l/m 1,4 km/h (1 Bft) N 360 0,1 C 5,1 C
08.03.2012 19:52 5,0 C 71 % 1029,7 hPa 0,0 l/m 0,0 km/h (0 Bft) N 360 0,2 C 5,0 C
08.03.2012 19:57 5,0 C 71 % 1029,8 hPa 0,0 l/m 0,0 km/h (0 Bft) N-NW 337 0,2 C 5,0 C
08.03.2012 20:02 5,0 C 71 % 1030,1 hPa 0,0 l/m 4,0 km/h (1 Bft) NW 315 0,2 C 5,0 C
08.03.2012 20:07 4,9 C 71 % 1030,2 hPa 0,0 l/m 2,2 km/h (1 Bft) NW 315 0,1 C 4,9 C
08.03.2012 20:12 4,9 C 71 % 1030,1 hPa 0,0 l/m 2,5 km/h (1 Bft) W-NW 292 0,1 C 4,9 C
08.03.2012 20:17 4,9 C 71 % 1030,2 hPa 0,0 l/m 1,1 km/h (1 Bft) W-NW 292 0,1 C 4,9 C
08.03.2012 20:22 4,8 C 71 % 1030,3 hPa 0,0 l/m 1,8 km/h (1 Bft) W 270 -0,0 C 4,8 C
08.03.2012 20:27 4,7 C 71 % 1030,2 hPa 0,0 l/m 1,4 km/h (1 Bft) NW 315 -0,1 C 4,7 C
08.03.2012 20:32 4,6 C 71 % 1030,5 hPa 0,0 l/m 0,0 km/h (0 Bft) NW 315 -0,2 C 4,6 C
08.03.2012 20:37 4,5 C 72 % 1030,4 hPa 0,0 l/m 2,5 km/h (1 Bft) W-NW 292 -0,1 C 4,5 C
08.03.2012 20:42 4,5 C 72 % 1030,4 hPa 0,0 l/m 4,0 km/h (1 Bft) W 270 -0,1 C 4,5 C
08.03.2012 20:47 4,5 C 71 % 1030,6 hPa 0,0 l/m 4,7 km/h (1 Bft) W-NW 292 -0,3 C 3,6 C
08.03.2012 20:52 4,5 C 71 % 1030,6 hPa 0,0 l/m 6,5 km/h (2 Bft) W 270 -0,3 C 3,0 C
08.03.2012 20:57 4,5 C 71 % 1030,9 hPa 0,0 l/m 3,6 km/h (1 Bft) W-NW 292 -0,3 C 4,5 C
08.03.2012 21:02 4,5 C 72 % 1030,8 hPa 0,0 l/m 7,9 km/h (2 Bft) W-NW 292 -0,1 C 2,6 C
08.03.2012 21:07 4,4 C 72 % 1031,0 hPa 0,0 l/m 6,1 km/h (2 Bft) W-NW 292 -0,2 C 3,0 C
08.03.2012 21:12 4,4 C 72 % 1031,0 hPa 0,0 l/m 4,7 km/h (1 Bft) W-NW 292 -0,2 C 3,5 C
08.03.2012 21:17 4,4 C 72 % 1031,2 hPa 0,0 l/m 2,5 km/h (1 Bft) W-NW 292 -0,2 C 4,4 C
08.03.2012 21:22 4,3 C 73 % 1031,3 hPa 0,0 l/m 3,6 km/h (1 Bft) W 270 -0,1 C 4,3 C
08.03.2012 21:27 4,3 C 73 % 1031,4 hPa 0,0 l/m 5,4 km/h (1 Bft) W 270 -0,1 C 3,1 C
08.03.2012 21:32 4,1 C 73 % 1031,5 hPa 0,0 l/m 2,9 km/h (1 Bft) W-NW 292 -0,3 C 4,1 C
08.03.2012 21:37 4,1 C 74 % 1031,3 hPa 0,0 l/m 4,0 km/h (1 Bft) W-NW 292 -0,1 C 4,1 C
08.03.2012 21:42 3,9 C 74 % 1031,4 hPa 0,0 l/m 6,5 km/h (2 Bft) W 270 -0,3 C 2,3 C
08.03.2012 21:47 3,9 C 75 % 1031,5 hPa 0,0 l/m 4,7 km/h (1 Bft) W 270 -0,1 C 3,0 C
08.03.2012 21:52 3,9 C 75 % 1031,5 hPa 0,0 l/m 5,0 km/h (1 Bft) W 270 -0,1 C 2,8 C
08.03.2012 21:57 3,9 C 75 % 1031,6 hPa 0,0 l/m 2,2 km/h (1 Bft) W 270 -0,1 C 3,9 C
08.03.2012 22:02 3,8 C 76 % 1031,8 hPa 0,0 l/m 5,0 km/h (1 Bft) W 270 -0,0 C 2,7 C
08.03.2012 22:07 3,8 C 76 % 1031,9 hPa 0,0 l/m 2,2 km/h (1 Bft) W 270 -0,0 C 3,8 C
08.03.2012 22:12 3,8 C 76 % 1031,9 hPa 0,0 l/m 7,2 km/h (2 Bft) W-NW 292 -0,0 C 2,0 C
08.03.2012 22:17 3,7 C 76 % 1032,0 hPa 0,0 l/m 4,7 km/h (1 Bft) W 270 -0,1 C 2,7 C
08.03.2012 22:22 3,6 C 76 % 1032,0 hPa 0,0 l/m 3,6 km/h (1 Bft) NW 315 -0,2 C 3,6 C
08.03.2012 22:27 3,6 C 76 % 1031,9 hPa 0,0 l/m 3,6 km/h (1 Bft) W-NW 292 -0,2 C 3,6 C
08.03.2012 22:32 3,6 C 77 % 1032,1 hPa 0,0 l/m 3,6 km/h (1 Bft) W 270 -0,0 C 3,6 C
08.03.2012 22:37 3,6 C 77 % 1032,1 hPa 0,0 l/m 7,2 km/h (2 Bft) W 270 -0,0 C 1,7 C
08.03.2012 22:42 3,6 C 77 % 1032,2 hPa 0,0 l/m 6,1 km/h (2 Bft) W-NW 292 -0,0 C 2,1 C
08.03.2012 22:47 3,5 C 77 % 1032,3 hPa 0,0 l/m 4,3 km/h (1 Bft) NW 315 -0,1 C 3,5 C
08.03.2012 22:52 3,4 C 77 % 1032,6 hPa 0,0 l/m 3,6 km/h (1 Bft) W 270 -0,2 C 3,4 C
08.03.2012 22:57 3,4 C 77 % 1032,4 hPa 0,0 l/m 5,0 km/h (1 Bft) W-NW 292 -0,2 C 2,3 C
08.03.2012 23:02 3,3 C 78 % 1032,7 hPa 0,0 l/m 2,5 km/h (1 Bft) W-NW 292 -0,2 C 3,3 C
08.03.2012 23:07 3,3 C 78 % 1032,7 hPa 0,0 l/m 0,0 km/h (0 Bft) W-NW 292 -0,2 C 3,3 C
08.03.2012 23:12 3,3 C 78 % 1032,8 hPa 0,0 l/m 1,8 km/h (1 Bft) W 270 -0,2 C 3,3 C
08.03.2012 23:17 3,3 C 78 % 1032,8 hPa 0,0 l/m 2,5 km/h (1 Bft) W-NW 292 -0,2 C 3,3 C
08.03.2012 23:22 3,2 C 78 % 1033,0 hPa 0,0 l/m 3,2 km/h (1 Bft) W 270 -0,3 C 3,2 C
08.03.2012 23:27 3,1 C 78 % 1032,9 hPa 0,0 l/m 0,0 km/h (0 Bft) W-NW 292 -0,4 C 3,1 C
08.03.2012 23:32 3,1 C 78 % 1033,1 hPa 0,0 l/m 4,0 km/h (1 Bft) W 270 -0,4 C 3,1 C
08.03.2012 23:37 3,1 C 78 % 1033,0 hPa 0,0 l/m 3,2 km/h (1 Bft) W 270 -0,4 C 3,1 C
08.03.2012 23:42 3,0 C 78 % 1033,1 hPa 0,0 l/m 4,7 km/h (1 Bft) W 270 -0,5 C 1,9 C
08.03.2012 23:47 2,9 C 79 % 1033,2 hPa 0,0 l/m 3,2 km/h (1 Bft) W 270 -0,4 C 2,9 C
08.03.2012 23:52 2,9 C 79 % 1033,1 hPa 0,0 l/m 4,0 km/h (1 Bft) W-SW 247 -0,4 C 2,9 C
08.03.2012 23:57 2,9 C 79 % 1033,2 hPa 0,0 l/m 2,9 km/h (1 Bft) W-NW 292 -0,4 C 2,9 C
_ Min-Zeit 23:47 16:57 03:12 - 00:52 - - 23:42 06:37
Minimum _ 2,9 C 57 % 1013,0 hPa - 0,0 km/h (0 Bft) - - -0,5 C 0,4 C
_ Max-Zeit 16:47 09:52 23:47 02:07 12:02 - - 11:12 16:37
Maximum _ 8,6 C 90 % 1033,2 hPa 0,5 l/m 22,0 km/h
W-NW (4 Bft)
- - 3,5 C 8,5 C
Durchschnitt _ 5,3 C 77 % 1021,5 hPa #4,1 l/m 5,9 km/h (2 Bft) W-NW - 1,5 C 4,2 C
(c) by David Heller